Time;durP1;ratioP1;P1;durP2;ratioP2;P2;SDS_P1;SDS_P2;PMS_P1;PMS_P2;Temp;Humidity;BMP_temperature;BMP_pressure;BME280_temperature;BME280_humidity;BME280_pressure;Samples;Min_cycle;Max_cycle;Signal;HPM_P1;HPM_P2
2024/03/17 00:00:22;;;;;;;19.80;3.90;;;;;;;5.88;70.94;101085.59;108978;1256;66964;-66
2024/03/17 00:03:09;;;;;;;19.90;4.10;;;;;;;5.92;70.85;101086.85;108732;1255;137869;-67
2024/03/17 00:05:36;;;;;;;16.90;3.80;;;;;;;5.96;70.82;101084.95;109040;1256;60333;-66
2024/03/17 00:08:06;;;;;;;17.40;4.10;;;;;;;5.96;70.61;101082.73;105728;1256;60537;-65
2024/03/17 00:10:32;;;;;;;15.60;3.50;;;;;;;5.98;70.55;101081.92;104718;1259;138155;-65
2024/03/17 00:12:59;;;;;;;23.10;4.50;;;;;;;5.99;70.61;101083.55;104971;1257;66997;-65
2024/03/17 00:15:26;;;;;;;16.40;3.30;;;;;;;6.00;70.68;101088.48;104768;1257;137947;-66
2024/03/17 00:17:53;;;;;;;21.20;3.60;;;;;;;6.02;70.61;101087.19;104750;1262;62463;-67
2024/03/17 00:20:20;;;;;;;16.60;3.80;;;;;;;6.04;70.50;101089.73;104760;1262;62128;-67
2024/03/17 00:22:48;;;;;;;16.00;4.00;;;;;;;6.03;70.35;101082.02;104713;1257;137479;-66
2024/03/17 00:25:15;;;;;;;12.90;2.90;;;;;;;6.04;70.35;101083.46;108933;1256;67279;-66
2024/03/17 00:27:44;;;;;;;14.40;2.60;;;;;;;6.06;70.26;101079.16;108711;1255;138707;-66
2024/03/17 00:30:15;;;;;;;15.40;3.40;;;;;;;6.06;70.25;101080.02;108931;1255;60000;-66
2024/03/17 00:32:42;;;;;;;11.10;3.00;;;;;;;6.08;70.16;101078.42;108949;1256;138392;-66
2024/03/17 00:35:09;;;;;;;18.70;4.10;;;;;;;6.10;70.10;101077.11;109061;1256;74792;-67
2024/03/17 00:37:36;;;;;;;14.80;3.10;;;;;;;6.14;70.13;101074.52;109062;1255;66077;-66
2024/03/17 00:40:03;;;;;;;20.70;4.10;;;;;;;6.19;70.01;101076.49;108793;1256;137675;-66
2024/03/17 00:42:29;;;;;;;16.90;3.40;;;;;;;6.22;70.00;101074.88;109006;1256;59823;-66
2024/03/17 00:44:56;;;;;;;18.10;4.40;;;;;;;6.25;69.98;101070.52;108899;1256;137784;-66
2024/03/17 00:47:23;;;;;;;13.60;3.60;;;;;;;6.25;69.87;101071.77;108936;1256;74457;-65
2024/03/17 00:49:50;;;;;;;23.40;4.00;;;;;;;6.28;69.85;101076.59;109075;1256;65050;-65
2024/03/17 00:52:17;;;;;;;19.60;3.50;;;;;;;6.31;69.93;101071.13;108797;1257;137675;-66
2024/03/17 00:54:47;;;;;;;19.30;3.50;;;;;;;6.32;69.83;101073.27;108754;1255;59937;-65
2024/03/17 00:57:15;;;;;;;24.70;7.20;;;;;;;6.34;69.85;101068.99;108884;1256;137837;-66
2024/03/17 00:59:44;;;;;;;19.80;4.10;;;;;;;6.34;69.80;101069.52;109048;1256;74537;-66
2024/03/17 01:02:12;;;;;;;15.50;3.40;;;;;;;6.33;69.69;101064.80;108773;1256;65096;-66
2024/03/17 01:04:39;;;;;;;17.80;3.50;;;;;;;6.34;69.76;101070.94;108709;1255;137617;-65
2024/03/17 01:07:06;;;;;;;16.30;4.30;;;;;;;6.37;69.75;101072.27;108800;1259;59990;-65
2024/03/17 01:09:32;;;;;;;15.90;5.00;;;;;;;6.37;69.77;101075.63;108806;1256;138652;-62
2024/03/17 01:11:59;;;;;;;15.50;3.70;;;;;;;6.37;69.94;101073.17;109029;1256;75712;-63
2024/03/17 01:14:27;;;;;;;17.20;4.50;;;;;;;6.37;70.03;101077.03;109023;1256;67303;-62
2024/03/17 01:16:55;;;;;;;13.00;4.00;;;;;;;6.38;70.17;101081.08;108935;1256;71945;-62
2024/03/17 01:19:21;;;;;;;19.30;4.40;;;;;;;6.37;70.24;101080.12;108998;1256;59851;-62
2024/03/17 01:21:48;;;;;;;19.10;4.40;;;;;;;6.31;70.31;101074.98;108854;1256;138045;-62
2024/03/17 01:24:14;;;;;;;19.50;3.70;;;;;;;6.26;70.51;101082.92;108959;1256;76471;-62
2024/03/17 01:26:41;;;;;;;12.40;3.20;;;;;;;6.25;70.67;101082.17;104804;1259;137805;-62
2024/03/17 01:29:08;;;;;;;19.40;3.20;;;;;;;6.22;70.78;101074.76;104913;1256;61150;-62
2024/03/17 01:31:35;;;;;;;16.10;3.50;;;;;;;6.16;70.73;101079.34;104738;1257;62154;-62
2024/03/17 01:34:02;;;;;;;15.80;3.30;;;;;;;6.11;70.66;101080.83;104730;1258;138243;-63
2024/03/17 01:36:29;;;;;;;13.20;3.20;;;;;;;6.07;71.00;101075.56;104785;1256;75716;-62
2024/03/17 01:38:55;;;;;;;12.40;2.80;;;;;;;6.05;71.11;101075.64;104834;1259;138517;-62
2024/03/17 01:41:22;;;;;;;13.80;3.00;;;;;;;6.03;71.33;101079.59;104687;1256;71731;-62
2024/03/17 01:43:48;;;;;;;15.70;2.90;;;;;;;6.04;71.35;101077.16;104906;1257;61999;-63
2024/03/17 01:46:15;;;;;;;17.00;3.50;;;;;;;6.04;71.42;101076.45;104543;1256;138401;-62
2024/03/17 01:48:42;;;;;;;15.90;3.00;;;;;;;6.05;71.57;101077.56;105031;1256;76738;-63
2024/03/17 01:51:08;;;;;;;18.30;3.20;;;;;;;6.05;71.60;101078.80;104643;1257;139809;-63
2024/03/17 01:53:35;;;;;;;13.80;3.30;;;;;;;6.05;71.66;101075.64;104714;1256;72133;-62
2024/03/17 01:56:02;;;;;;;12.10;3.00;;;;;;;6.02;71.64;101076.05;104651;1262;62122;-63
2024/03/17 01:58:30;;;;;;;10.20;2.50;;;;;;;6.00;71.65;101078.72;104693;1256;138005;-63
2024/03/17 02:00:56;;;;;;;9.60;2.80;;;;;;;5.96;71.64;101070.86;104814;1259;73943;-64
2024/03/17 02:03:23;;;;;;;14.70;3.20;;;;;;;5.90;71.70;101065.48;104597;1257;138036;-63
2024/03/17 02:05:49;;;;;;;11.60;2.70;;;;;;;5.78;71.56;101071.84;104839;1256;73332;-67
2024/03/17 02:08:16;;;;;;;11.50;2.30;;;;;;;5.64;71.59;101071.89;104791;1256;62092;-67
2024/03/17 02:10:43;;;;;;;9.60;2.40;;;;;;;5.55;71.61;101074.54;104563;1261;138230;-66
2024/03/17 02:13:09;;;;;;;13.50;2.70;;;;;;;5.44;71.67;101073.29;104765;1258;76485;-66
2024/03/17 02:15:36;;;;;;;13.40;2.40;;;;;;;5.34;71.65;101071.21;104658;1260;137648;-66
2024/03/17 02:18:03;;;;;;;11.90;2.40;;;;;;;5.25;71.89;101068.54;104699;1257;72678;-66
2024/03/17 02:23:14;;;;;;;10.80;2.30;;;;;;;5.21;72.29;101074.05;104851;1260;61069;-67
2024/03/17 02:25:42;;;;;;;7.00;1.90;;;;;;;5.24;72.33;101079.92;104762;1258;75552;-67
2024/03/17 02:28:08;;;;;;;7.40;1.70;;;;;;;5.28;72.25;101083.08;104660;1257;138831;-66
2024/03/17 02:30:35;;;;;;;9.60;2.00;;;;;;;5.30;72.22;101086.51;104798;1255;72496;-66
2024/03/17 02:33:02;;;;;;;7.00;2.20;;;;;;;5.30;72.16;101096.92;104744;1256;138104;-66
2024/03/17 02:35:29;;;;;;;7.30;2.30;;;;;;;5.28;72.05;101109.36;104807;1258;61348;-65
2024/03/17 02:37:56;;;;;;;10.60;2.40;;;;;;;5.25;72.12;101106.99;104685;1257;76364;-65
2024/03/17 02:40:23;;;;;;;11.00;1.90;;;;;;;5.22;72.09;101108.21;104723;1256;137890;-65
2024/03/17 02:42:50;;;;;;;3.40;1.40;;;;;;;5.20;71.98;101109.82;104821;1257;72693;-65
2024/03/17 02:45:17;;;;;;;2.20;1.10;;;;;;;5.13;71.54;101108.44;104677;1256;137748;-65
2024/03/17 02:47:43;;;;;;;4.00;1.10;;;;;;;5.05;71.11;101114.77;104649;1259;61995;-65
2024/03/17 02:50:10;;;;;;;4.90;1.80;;;;;;;4.96;70.95;101113.59;104802;1259;75992;-65
2024/03/17 02:52:36;;;;;;;5.00;1.20;;;;;;;4.89;70.93;101119.34;104679;1260;138364;-64
2024/03/17 02:55:03;;;;;;;3.60;1.10;;;;;;;4.85;71.03;101121.73;104883;1259;62064;-64
2024/03/17 02:57:32;;;;;;;4.50;1.10;;;;;;;4.82;71.06;101117.56;104561;1256;138390;-65
2024/03/17 02:59:59;;;;;;;3.30;1.20;;;;;;;4.78;70.85;101120.13;109013;1256;60524;-65
2024/03/17 03:02:25;;;;;;;2.40;1.00;;;;;;;4.71;70.75;101120.46;108612;1256;75350;-65
2024/03/17 03:04:52;;;;;;;6.30;1.90;;;;;;;4.62;70.57;101123.77;108861;1256;137456;-65
2024/03/17 03:07:19;;;;;;;5.70;1.20;;;;;;;4.53;70.60;101124.83;108961;1256;72465;-65
2024/03/17 03:09:45;;;;;;;2.50;1.10;;;;;;;4.50;70.62;101126.61;108848;1256;137680;-65
2024/03/17 03:12:12;;;;;;;2.20;1.20;;;;;;;4.53;70.71;101125.36;109080;1256;60417;-65
2024/03/17 03:14:38;;;;;;;4.00;1.50;;;;;;;4.56;70.54;101123.25;108926;1255;137728;-65
2024/03/17 03:17:05;;;;;;;5.60;1.40;;;;;;;4.59;70.60;101126.77;108962;1257;64683;-65
2024/03/17 03:19:31;;;;;;;2.10;1.20;;;;;;;4.62;70.38;101127.24;108870;1256;71624;-65
2024/03/17 03:21:58;;;;;;;5.30;1.40;;;;;;;4.64;70.26;101130.83;108729;1258;138466;-65
2024/03/17 03:24:24;;;;;;;4.80;1.10;;;;;;;4.68;70.42;101131.57;108920;1256;60430;-65
2024/03/17 03:26:51;;;;;;;1.80;1.10;;;;;;;4.72;70.28;101133.71;108764;1256;137869;-65
2024/03/17 03:29:17;;;;;;;4.60;1.10;;;;;;;4.75;70.16;101129.16;108963;1256;67453;-65
2024/03/17 03:31:44;;;;;;;4.90;1.40;;;;;;;4.77;70.21;101128.43;108305;1256;71828;-65
2024/03/17 03:34:10;;;;;;;4.80;1.40;;;;;;;4.77;70.28;101131.75;104710;1256;137729;-66
2024/03/17 03:36:38;;;;;;;3.00;1.40;;;;;;;4.80;70.30;101130.99;104738;1256;62310;-66
2024/03/17 03:39:05;;;;;;;3.00;1.40;;;;;;;4.79;70.48;101131.30;108791;1256;138267;-66
2024/03/17 03:41:35;;;;;;;2.70;1.20;;;;;;;4.78;70.68;101131.45;108991;1256;66360;-67
2024/03/17 03:44:01;;;;;;;5.30;1.50;;;;;;;4.76;70.74;101132.70;108824;1256;71213;-67
2024/03/17 03:46:28;;;;;;;4.30;1.50;;;;;;;4.68;70.84;101127.77;108865;1256;138228;-67
2024/03/17 03:48:55;;;;;;;4.90;1.80;;;;;;;4.61;71.02;101124.41;108987;1255;61732;-67
2024/03/17 03:51:21;;;;;;;3.90;1.40;;;;;;;4.56;71.31;101121.90;108914;1256;138416;-67
2024/03/17 03:53:48;;;;;;;3.40;1.40;;;;;;;4.54;71.39;101121.42;108849;1257;64849;-67
2024/03/17 03:56:15;;;;;;;3.40;1.60;;;;;;;4.53;71.48;101121.68;108949;1256;72260;-66
2024/03/17 03:58:42;;;;;;;2.30;1.10;;;;;;;4.51;71.64;101115.35;108853;1256;138246;-67
2024/03/17 04:01:11;;;;;;;2.90;1.20;;;;;;;4.49;71.70;101118.02;108999;1257;61052;-67
2024/03/17 04:03:39;;;;;;;3.90;1.60;;;;;;;4.48;71.76;101117.98;108838;1256;138043;-67
2024/03/17 04:06:07;;;;;;;2.80;1.30;;;;;;;4.46;71.70;101117.17;108962;1256;67451;-67
2024/03/17 04:08:34;;;;;;;3.80;1.10;;;;;;;4.44;71.69;101117.05;108711;1256;137648;-67
2024/03/17 04:11:01;;;;;;;5.60;1.50;;;;;;;4.41;71.77;101118.81;108823;1256;59852;-65
2024/03/17 04:13:31;;;;;;;4.20;1.50;;;;;;;4.41;71.79;101119.49;109017;1256;60881;-66
2024/03/17 04:15:58;;;;;;;3.30;1.70;;;;;;;4.40;71.87;101123.61;108915;1257;137675;-66
2024/03/17 04:18:25;;;;;;;2.50;1.40;;;;;;;4.40;71.90;101130.73;108899;1256;67360;-65
2024/03/17 04:20:53;;;;;;;3.80;1.50;;;;;;;4.39;72.01;101129.63;108851;1256;138797;-66
2024/03/17 04:23:21;;;;;;;5.00;1.70;;;;;;;4.42;72.11;101126.98;108830;1256;59856;-66
2024/03/17 04:25:48;;;;;;;4.10;1.20;;;;;;;4.45;72.22;101124.25;108992;1256;60747;-66
2024/03/17 04:28:15;;;;;;;6.80;1.40;;;;;;;4.47;72.18;101129.73;106659;1261;138944;-65
2024/03/17 04:30:42;;;;;;;2.70;1.20;;;;;;;4.49;72.16;101126.36;108970;1255;66779;-65
2024/03/17 04:33:11;;;;;;;3.80;1.30;;;;;;;4.51;72.16;101127.88;108761;1255;137715;-66
2024/03/17 04:35:38;;;;;;;3.20;1.20;;;;;;;4.51;72.23;101126.48;108959;1256;60082;-67
2024/03/17 04:38:05;;;;;;;3.90;1.20;;;;;;;4.53;72.22;101125.69;109001;1256;60019;-66
2024/03/17 04:40:40;;;;;;;3.50;1.40;;;;;;;4.53;72.21;101121.55;108899;1255;138128;-67
2024/03/17 04:43:07;;;;;;;3.70;1.10;;;;;;;4.52;72.14;101121.14;108981;1259;65479;-67
2024/03/17 04:45:34;;;;;;;5.20;1.40;;;;;;;4.49;72.17;101123.25;108821;1256;138274;-67
2024/03/17 04:48:01;;;;;;;2.70;1.30;;;;;;;4.47;72.21;101128.00;108992;1256;59813;-67
2024/03/17 04:50:31;;;;;;;2.90;1.50;;;;;;;4.44;72.29;101128.37;109023;1255;60073;-66
2024/03/17 04:52:59;;;;;;;4.60;1.50;;;;;;;4.42;72.20;101134.32;108828;1256;76275;-66
2024/03/17 04:55:26;;;;;;;3.70;1.50;;;;;;;4.41;72.34;101136.89;108823;1256;65091;-66
2024/03/17 04:57:52;;;;;;;3.30;1.30;;;;;;;4.43;72.45;101139.24;108844;1256;139522;-66
2024/03/17 05:00:20;;;;;;;2.60;0.90;;;;;;;4.44;72.48;101139.16;109015;1256;60110;-66
2024/03/17 05:02:47;;;;;;;4.10;1.00;;;;;;;4.47;72.57;101142.41;108932;1259;138905;-66
2024/03/17 05:05:14;;;;;;;4.60;1.20;;;;;;;4.51;72.70;101141.39;108862;1256;74313;-65
2024/03/17 05:07:41;;;;;;;2.80;1.20;;;;;;;4.55;72.70;101141.61;109045;1256;67402;-65
2024/03/17 05:10:07;;;;;;;2.60;0.80;;;;;;;4.59;72.83;101140.48;108851;1256;138669;-65
2024/03/17 05:12:34;;;;;;;4.10;1.10;;;;;;;4.63;72.64;101142.59;108984;1256;60054;-66
2024/03/17 05:15:00;;;;;;;3.60;1.20;;;;;;;4.63;72.60;101143.30;108860;1256;137841;-66
2024/03/17 05:17:27;;;;;;;2.70;1.00;;;;;;;4.64;72.61;101143.36;108847;1256;74466;-66
2024/03/17 05:19:53;;;;;;;2.00;0.90;;;;;;;4.65;72.67;101145.70;109011;1256;66072;-66
2024/03/17 05:22:20;;;;;;;2.10;0.80;;;;;;;4.70;72.77;101149.23;108881;1256;138681;-67
2024/03/17 05:24:48;;;;;;;1.90;1.00;;;;;;;4.72;72.69;101147.61;109027;1256;60095;-67
2024/03/17 05:27:14;;;;;;;3.70;1.10;;;;;;;4.73;72.85;101150.95;105286;1256;138222;-66
2024/03/17 05:29:41;;;;;;;2.60;1.10;;;;;;;4.76;72.84;101155.15;104782;1262;75005;-67
2024/03/17 05:32:08;;;;;;;1.90;0.80;;;;;;;4.78;72.82;101154.19;104881;1259;66473;-67
2024/03/17 05:34:34;;;;;;;2.30;0.90;;;;;;;4.78;72.78;101162.05;104733;1261;137621;-67
2024/03/17 05:37:01;;;;;;;1.50;1.00;;;;;;;4.80;72.87;101168.92;104733;1260;62078;-67
2024/03/17 05:39:28;;;;;;;2.40;1.10;;;;;;;4.84;73.02;101169.67;108839;1256;137995;-67
2024/03/17 05:41:55;;;;;;;1.80;0.90;;;;;;;4.85;72.97;101171.63;108978;1256;75547;-67
2024/03/17 05:44:21;;;;;;;1.70;0.80;;;;;;;4.86;73.02;101178.98;108932;1257;66142;-67
2024/03/17 05:46:48;;;;;;;2.10;0.90;;;;;;;4.88;73.02;101178.38;108859;1256;137449;-66
2024/03/17 05:49:15;;;;;;;2.00;0.90;;;;;;;4.90;73.05;101182.84;108930;1261;60211;-66
2024/03/17 05:51:41;;;;;;;1.20;0.60;;;;;;;4.92;72.97;101184.69;108868;1257;138784;-67
2024/03/17 05:54:08;;;;;;;1.70;0.90;;;;;;;4.94;73.00;101188.65;108965;1256;59919;-67
2024/03/17 05:56:34;;;;;;;3.50;0.80;;;;;;;4.97;72.95;101197.31;108734;1256;139189;-65
2024/03/17 05:59:01;;;;;;;0.60;0.60;;;;;;;5.01;73.12;101199.95;108966;1256;72761;-65
2024/03/17 06:01:28;;;;;;;1.00;0.70;;;;;;;5.07;73.15;101202.41;108968;1259;60152;-66
2024/03/17 06:03:55;;;;;;;1.30;0.70;;;;;;;5.15;73.02;101209.59;108904;1256;138093;-67
2024/03/17 06:06:22;;;;;;;1.60;1.00;;;;;;;5.20;73.03;101215.42;108941;1256;75547;-66
2024/03/17 06:08:49;;;;;;;1.90;0.80;;;;;;;5.23;72.94;101220.17;108953;1256;138213;-66
2024/03/17 06:11:16;;;;;;;1.20;0.80;;;;;;;5.25;72.91;101225.50;108900;1256;72641;-66
2024/03/17 06:13:42;;;;;;;2.40;1.10;;;;;;;5.26;72.98;101237.54;108960;1256;60016;-66
2024/03/17 06:16:09;;;;;;;2.20;1.10;;;;;;;5.31;73.05;101241.08;108880;1256;137570;-66
2024/03/17 06:18:35;;;;;;;3.20;1.20;;;;;;;5.38;73.11;101247.21;109050;1257;75232;-67
2024/03/17 06:21:04;;;;;;;2.30;1.70;;;;;;;5.40;73.01;101253.23;108846;1256;138355;-67
2024/03/17 06:23:31;;;;;;;2.20;1.40;;;;;;;5.39;73.04;101256.86;108770;1256;72747;-66
2024/03/17 06:25:59;;;;;;;1.40;1.10;;;;;;;5.41;73.03;101265.64;108792;1255;60330;-66
2024/03/17 06:28:26;;;;;;;1.40;1.20;;;;;;;5.38;72.86;101277.84;108861;1256;139061;-66
2024/03/17 06:30:59;;;;;;;4.50;1.80;;;;;;;5.29;72.59;101287.08;107829;1256;76353;-66
2024/03/17 06:33:26;;;;;;;2.60;1.60;;;;;;;5.15;72.52;101292.79;104821;1259;137623;-66
2024/03/17 06:35:53;;;;;;;1.90;0.90;;;;;;;4.96;72.26;101306.30;109016;1256;71827;-67
2024/03/17 06:38:19;;;;;;;1.20;0.70;;;;;;;4.71;72.27;101311.66;108981;1259;60023;-67
2024/03/17 06:40:50;;;;;;;1.00;0.80;;;;;;;4.51;72.56;101322.84;108925;1256;137665;-67
2024/03/17 06:43:17;;;;;;;1.00;0.80;;;;;;;4.36;72.98;101326.30;108980;1256;75403;-66
2024/03/17 06:45:43;;;;;;;1.10;0.90;;;;;;;4.27;73.19;101333.27;108924;1256;138257;-66
2024/03/17 06:48:10;;;;;;;1.70;1.10;;;;;;;4.23;73.50;101337.94;108818;1256;73448;-67
2024/03/17 06:50:40;;;;;;;1.80;0.80;;;;;;;4.19;73.40;101343.02;108842;1255;139127;-67
2024/03/17 06:53:08;;;;;;;0.90;0.80;;;;;;;4.18;73.59;101349.73;105490;1259;61913;-66
2024/03/17 06:55:35;;;;;;;1.00;0.70;;;;;;;4.17;73.57;101352.98;108755;1262;73696;-66
2024/03/17 06:58:03;;;;;;;1.50;0.90;;;;;;;4.17;73.51;101362.05;108701;1256;138312;-66
2024/03/17 07:00:29;;;;;;;0.90;0.60;;;;;;;4.19;73.56;101364.38;108971;1257;71447;-66
2024/03/17 07:02:57;;;;;;;0.90;0.80;;;;;;;4.22;73.47;101366.52;108713;1255;137758;-67
2024/03/17 07:05:23;;;;;;;1.80;1.00;;;;;;;4.26;73.40;101371.64;108918;1256;59735;-67
2024/03/17 07:07:51;;;;;;;1.70;0.80;;;;;;;4.22;73.31;101373.42;108941;1256;77663;-67
2024/03/17 07:10:18;;;;;;;2.20;0.90;;;;;;;4.18;73.40;101378.44;108848;1256;138071;-67
2024/03/17 07:12:44;;;;;;;1.50;1.00;;;;;;;4.15;73.21;101381.17;109027;1256;72800;-66
2024/03/17 07:15:11;;;;;;;1.20;1.00;;;;;;;4.16;73.18;101384.18;108840;1256;138418;-67
2024/03/17 07:17:37;;;;;;;1.20;1.10;;;;;;;4.19;73.05;101382.99;109006;1256;60075;-67
2024/03/17 07:20:08;;;;;;;1.20;1.00;;;;;;;4.26;73.13;101385.86;107854;1257;75285;-66
2024/03/17 07:22:35;;;;;;;2.90;1.20;;;;;;;4.40;72.98;101393.09;108403;1256;138338;-67
2024/03/17 07:25:02;;;;;;;1.50;0.90;;;;;;;4.44;72.45;101396.50;108317;1256;71040;-67
2024/03/17 07:27:28;;;;;;;2.50;1.20;;;;;;;4.50;72.35;101403.42;108355;1256;138698;-67
2024/03/17 07:29:55;;;;;;;1.40;0.80;;;;;;;4.55;72.13;101400.66;108426;1256;61554;-67
2024/03/17 07:32:25;;;;;;;2.30;0.90;;;;;;;4.54;71.57;101403.51;107121;1259;75467;-64
2024/03/17 07:34:52;;;;;;;1.30;1.00;;;;;;;4.46;71.38;101415.91;104268;1257;137867;-64
2024/03/17 07:37:19;;;;;;;2.80;1.00;;;;;;;4.36;71.33;101423.81;104387;1257;71197;-64
2024/03/17 07:39:49;;;;;;;1.40;1.00;;;;;;;4.28;71.46;101428.20;104294;1257;138017;-65
2024/03/17 07:42:16;;;;;;;2.10;0.80;;;;;;;4.23;71.79;101434.81;104276;1255;62123;-64
2024/03/17 07:44:45;;;;;;;2.40;1.10;;;;;;;4.18;72.17;101440.98;104014;1259;140625;-64
2024/03/17 07:47:12;;;;;;;1.00;0.80;;;;;;;4.07;72.20;101446.71;104033;1263;67118;-64
2024/03/17 07:49:38;;;;;;;1.70;1.00;;;;;;;3.98;72.30;101453.08;104416;1261;73806;-64
2024/03/17 07:52:05;;;;;;;1.90;1.00;;;;;;;3.85;72.49;101452.80;104214;1263;138210;-65
2024/03/17 07:54:35;;;;;;;1.50;0.70;;;;;;;3.80;73.46;101460.30;104100;1261;61956;-65
2024/03/17 07:57:01;;;;;;;3.60;0.90;;;;;;;3.75;76.93;101460.85;104142;1256;137871;-63
2024/03/17 07:59:28;;;;;;;2.80;1.00;;;;;;;3.79;78.47;101460.92;104095;1256;68526;-65
2024/03/17 08:01:56;;;;;;;2.20;1.20;;;;;;;3.94;77.95;101465.14;104249;1256;72906;-64
2024/03/17 08:04:23;;;;;;;2.50;1.50;;;;;;;4.03;76.99;101473.55;103950;1257;138959;-64
2024/03/17 08:06:50;;;;;;;2.10;1.10;;;;;;;3.98;75.74;101467.50;103815;1256;62183;-61
2024/03/17 08:09:17;;;;;;;2.50;1.20;;;;;;;4.02;74.75;101468.25;104266;1257;138178;-64
2024/03/17 08:11:46;;;;;;;3.90;1.60;;;;;;;4.09;73.85;101485.05;104671;1257;66673;-62
2024/03/17 08:14:14;;;;;;;2.60;1.30;;;;;;;4.01;76.43;101488.73;108386;1256;72583;-62
2024/03/17 08:16:41;;;;;;;2.40;1.20;;;;;;;3.99;77.25;101490.27;108445;1256;137960;-65
2024/03/17 08:19:08;;;;;;;3.70;1.00;;;;;;;3.86;77.32;101501.79;108970;1256;60976;-65
2024/03/17 08:21:35;;;;;;;3.90;1.50;;;;;;;3.59;77.77;101500.46;108753;1255;138579;-65
2024/03/17 08:24:02;;;;;;;2.90;1.50;;;;;;;3.57;78.41;101502.89;108898;1256;66043;-64
2024/03/17 08:26:30;;;;;;;2.10;1.40;;;;;;;3.73;77.96;101498.69;108892;1256;138777;-64
2024/03/17 08:28:57;;;;;;;1.50;1.00;;;;;;;3.93;76.84;101496.73;108907;1257;60097;-64
2024/03/17 08:31:23;;;;;;;1.50;0.90;;;;;;;4.17;75.95;101497.19;105213;1262;62041;-64
2024/03/17 08:33:50;;;;;;;2.40;1.00;;;;;;;4.26;74.10;101506.63;104501;1257;137874;-64
2024/03/17 08:36:19;;;;;;;2.00;1.10;;;;;;;4.30;73.35;101507.70;104254;1259;303173;-64
2024/03/17 08:38:47;;;;;;;2.10;1.10;;;;;;;4.35;72.62;101516.16;104213;1256;139198;-65
2024/03/17 08:41:14;;;;;;;2.70;0.90;;;;;;;4.34;72.05;101516.79;104413;1259;62119;-65
2024/03/17 08:43:42;;;;;;;1.50;1.30;;;;;;;4.32;71.92;101517.56;104263;1260;62158;-65
2024/03/17 08:46:10;;;;;;;4.20;1.20;;;;;;;4.32;71.73;101517.20;104058;1256;137530;-61
2024/03/17 08:48:38;;;;;;;2.20;1.10;;;;;;;4.26;71.54;101521.91;104772;1259;66851;-61
2024/03/17 08:51:05;;;;;;;2.20;1.40;;;;;;;4.19;71.27;101519.89;108804;1256;138041;-61
2024/03/17 08:53:32;;;;;;;4.40;2.00;;;;;;;4.22;71.22;101528.39;108941;1255;59783;-62
2024/03/17 08:55:59;;;;;;;3.90;1.90;;;;;;;4.25;70.99;101529.81;109012;1256;61592;-62
2024/03/17 08:58:26;;;;;;;3.60;1.80;;;;;;;4.23;70.90;101535.75;108910;1256;137809;-65
2024/03/17 09:00:53;;;;;;;5.20;1.70;;;;;;;4.18;70.81;101529.89;106086;1262;65945;-68
2024/03/17 09:03:19;;;;;;;5.50;1.30;;;;;;;4.20;70.99;101535.92;104805;1258;138268;-68
2024/03/17 09:05:48;;;;;;;2.60;1.40;;;;;;;4.28;70.94;101534.89;104931;1259;62056;-67
2024/03/17 09:08:21;;;;;;;3.50;1.60;;;;;;;4.47;71.08;101537.42;104789;1258;62169;-67
2024/03/17 09:10:49;;;;;;;2.70;1.50;;;;;;;4.67;70.69;101546.16;104782;1261;138537;-67
2024/03/17 09:13:17;;;;;;;3.00;1.50;;;;;;;4.85;70.73;101544.97;104851;1257;65281;-67
2024/03/17 09:15:56;;;;;;;2.10;1.60;;;;;;;4.98;70.43;101551.69;108782;1256;137673;-69
2024/03/17 09:18:23;;;;;;;2.90;1.60;;;;;;;4.94;70.04;101554.20;108767;1256;61608;-65
2024/03/17 09:20:59;;;;;;;5.20;1.60;;;;;;;4.85;69.79;101562.54;108860;1256;138333;-62
2024/03/17 09:23:27;;;;;;;0.90;0.80;;;;;;;4.64;69.41;101566.98;108749;1256;74997;-61
2024/03/17 09:25:55;;;;;;;4.00;1.30;;;;;;;4.33;69.43;101572.02;108608;1260;64122;-60
2024/03/17 09:28:22;;;;;;;3.10;1.20;;;;;;;4.01;70.29;101580.58;103877;1262;137776;-60
2024/03/17 09:30:49;;;;;;;3.60;1.50;;;;;;;3.77;70.70;101582.48;104339;1260;62158;-59
2024/03/17 09:33:16;;;;;;;5.50;1.80;;;;;;;3.70;71.65;101588.79;104725;1262;138383;-59
2024/03/17 09:35:43;;;;;;;3.30;1.60;;;;;;;3.78;71.82;101583.39;104936;1262;76047;-60
2024/03/17 09:38:09;;;;;;;4.30;1.60;;;;;;;3.96;71.63;101587.52;104959;1259;66843;-60
2024/03/17 09:40:36;;;;;;;4.80;1.40;;;;;;;4.16;70.87;101600.66;104819;1258;137652;-60
2024/03/17 09:43:02;;;;;;;4.60;1.80;;;;;;;4.28;70.46;101591.52;104785;1261;62165;-60
2024/03/17 09:45:29;;;;;;;3.60;1.50;;;;;;;4.34;70.09;101591.86;104715;1257;138275;-61
2024/03/17 09:47:55;;;;;;;2.00;1.30;;;;;;;4.22;69.66;101600.54;104793;1257;76366;-61
2024/03/17 09:50:22;;;;;;;1.60;1.20;;;;;;;3.98;69.36;101602.41;104945;1259;65359;-60
2024/03/17 09:52:48;;;;;;;2.80;1.50;;;;;;;3.64;69.25;101613.19;104619;1268;137940;-59
2024/03/17 09:55:16;;;;;;;3.40;1.10;;;;;;;3.27;70.46;101619.59;104934;1262;62319;-60
2024/03/17 09:57:42;;;;;;;2.70;1.20;;;;;;;2.91;72.05;101627.36;104800;1261;137923;-59
2024/03/17 10:00:14;;;;;;;2.90;1.50;;;;;;;2.61;72.47;101627.14;104850;1257;74657;-60
2024/03/17 10:02:47;;;;;;;3.90;1.50;;;;;;;2.50;73.26;101637.85;108869;1255;138369;-61
2024/03/17 10:05:23;;;;;;;4.40;1.60;;;;;;;2.45;75.67;101631.73;108841;1260;73162;-60
2024/03/17 10:07:50;;;;;;;2.10;1.30;;;;;;;2.49;77.98;101638.23;108978;1256;60156;-61
2024/03/17 10:10:18;;;;;;;2.80;1.40;;;;;;;2.57;79.40;101636.04;108905;1256;138305;-60
2024/03/17 10:12:51;;;;;;;3.60;1.70;;;;;;;2.74;79.80;101639.00;109009;1256;75810;-64
2024/03/17 10:15:18;;;;;;;2.00;1.40;;;;;;;2.89;79.20;101646.09;108865;1259;138263;-60
2024/03/17 10:17:45;;;;;;;3.60;1.50;;;;;;;3.06;78.94;101644.89;108955;1256;71902;-60
2024/03/17 10:20:18;;;;;;;1.90;1.30;;;;;;;3.29;78.75;101644.68;108926;1256;59949;-60
2024/03/17 10:23:05;;;;;;;3.10;1.40;;;;;;;3.51;78.26;101650.21;108806;1257;137880;-61
2024/03/17 10:25:34;;;;;;;2.30;1.30;;;;;;;3.74;77.92;101646.72;108941;1260;76598;-62
2024/03/17 10:28:01;;;;;;;3.00;1.80;;;;;;;4.01;77.44;101643.95;108859;1260;137607;-61
2024/03/17 10:30:29;;;;;;;3.70;1.50;;;;;;;4.17;76.81;101645.90;108833;1262;73688;-61
2024/03/17 10:32:57;;;;;;;4.40;2.00;;;;;;;4.29;75.77;101647.02;108752;1260;138084;-63
2024/03/17 10:35:34;;;;;;;2.80;1.60;;;;;;;4.36;74.48;101653.02;108945;1257;59976;-61
2024/03/17 10:38:02;;;;;;;3.90;1.80;;;;;;;4.43;73.48;101654.70;108922;1256;75464;-61
2024/03/17 10:40:29;;;;;;;4.30;1.40;;;;;;;4.40;72.32;101668.73;108772;1261;138068;-61
2024/03/17 10:42:57;;;;;;;5.50;1.90;;;;;;;4.23;71.53;101658.23;108920;1258;72393;-60
2024/03/17 10:45:24;;;;;;;2.90;1.40;;;;;;;4.22;71.94;101655.91;108729;1257;137925;-60
2024/03/17 10:47:51;;;;;;;4.10;2.20;;;;;;;4.33;71.86;101663.94;108801;1261;59836;-60
2024/03/17 10:50:23;;;;;;;3.80;1.80;;;;;;;4.44;71.67;101668.84;108843;1257;76789;-61
2024/03/17 10:52:50;;;;;;;3.50;1.60;;;;;;;4.39;70.97;101681.87;108763;1257;137640;-61
2024/03/17 10:55:22;;;;;;;3.20;1.70;;;;;;;4.28;69.92;101671.07;108931;1256;71914;-61
2024/03/17 10:57:50;;;;;;;4.10;1.70;;;;;;;4.31;70.10;101670.77;108743;1257;137618;-61
2024/03/17 11:00:17;;;;;;;3.30;1.90;;;;;;;4.44;69.43;101668.98;108835;1257;60074;-61
2024/03/17 11:02:45;;;;;;;3.50;1.70;;;;;;;4.56;69.67;101667.16;108687;1258;137665;-61
2024/03/17 11:05:17;;;;;;;2.80;1.80;;;;;;;4.72;69.21;101670.27;108780;1262;65581;-61
2024/03/17 11:07:47;;;;;;;3.80;1.80;;;;;;;4.83;68.55;101674.41;108806;1257;71911;-61
2024/03/17 11:10:27;;;;;;;4.70;2.10;;;;;;;4.91;68.57;101675.29;108796;1257;137557;-61
2024/03/17 11:12:56;;;;;;;4.90;2.10;;;;;;;5.10;68.71;101668.63;108665;1257;59829;-62
2024/03/17 11:15:38;;;;;;;3.30;1.80;;;;;;;5.19;68.35;101662.55;108608;1257;137916;-64
2024/03/17 11:18:07;;;;;;;3.20;1.90;;;;;;;5.24;67.93;101668.62;108849;1257;64684;-65
2024/03/17 11:20:39;;;;;;;2.70;1.30;;;;;;;5.36;67.69;101663.93;108814;1257;137751;-65
2024/03/17 11:23:05;;;;;;;4.20;1.90;;;;;;;5.57;67.45;101667.66;108750;1257;60291;-65